createdAt,value
2023-02-16T00:00:58.576Z,4.37
2023-02-16T00:03:28.341Z,4.30
2023-02-16T00:05:56.103Z,2.10
2023-02-16T00:08:24.019Z,3.67
2023-02-16T00:11:10.164Z,7.77
2023-02-16T00:13:53.284Z,3.83
2023-02-16T00:16:24.878Z,3.43
2023-02-16T00:18:56.085Z,3.90
2023-02-16T00:21:23.498Z,5.10
2023-02-16T00:23:52.323Z,4.77
2023-02-16T00:26:26.246Z,2.77
2023-02-16T00:29:00.410Z,2.60
2023-02-16T00:31:32.971Z,3.90
2023-02-16T00:34:26.664Z,5.17
2023-02-16T00:36:55.249Z,3.33
2023-02-16T00:39:27.947Z,5.30
2023-02-16T00:42:03.174Z,2.10
2023-02-16T00:44:56.936Z,4.03
2023-02-16T00:47:37.582Z,5.77
2023-02-16T00:50:23.053Z,4.43
2023-02-16T00:52:52.473Z,3.07
2023-02-16T00:55:26.741Z,2.73
2023-02-16T00:58:20.060Z,4.83
2023-02-16T01:00:55.963Z,6.20
2023-02-16T01:03:27.300Z,4.17
2023-02-16T01:06:15.306Z,5.27
2023-02-16T01:09:01.395Z,3.00
2023-02-16T01:11:30.113Z,4.13
2023-02-16T01:13:58.138Z,4.90
2023-02-16T01:16:36.808Z,3.97
2023-02-16T01:19:05.150Z,5.83
2023-02-16T01:21:33.421Z,5.93
2023-02-16T01:24:00.889Z,4.33
2023-02-16T01:26:29.367Z,2.57
2023-02-16T01:28:56.759Z,4.00
2023-02-16T01:31:24.152Z,3.50
2023-02-16T01:33:51.567Z,2.67
2023-02-16T01:36:27.045Z,4.33
2023-02-16T01:38:54.358Z,3.30
2023-02-16T01:42:00.710Z,3.10
2023-02-16T01:44:56.230Z,4.03
2023-02-16T01:47:52.330Z,5.70
2023-02-16T01:50:27.404Z,4.93
2023-02-16T01:53:12.262Z,4.70
2023-02-16T01:55:49.527Z,4.57
2023-02-16T01:58:49.974Z,2.87
2023-02-16T02:01:33.570Z,4.17
2023-02-16T02:04:20.373Z,4.90
2023-02-16T02:06:48.034Z,2.10
2023-02-16T02:09:26.153Z,4.87
2023-02-16T02:12:27.461Z,5.10
2023-02-16T02:14:57.247Z,4.17
2023-02-16T02:17:26.132Z,4.73
2023-02-16T02:19:59.346Z,3.17
2023-02-16T02:23:34.257Z,4.43
2023-02-16T02:26:34.387Z,6.07
2023-02-16T02:29:29.780Z,2.80
2023-02-16T02:32:31.191Z,2.63
2023-02-16T02:35:10.467Z,2.33
2023-02-16T02:37:55.960Z,3.27
2023-02-16T02:41:21.129Z,3.67
2023-02-16T02:44:00.439Z,3.10
2023-02-16T02:46:35.454Z,2.37
2023-02-16T02:49:02.773Z,4.10
2023-02-16T02:51:30.300Z,4.47
2023-02-16T02:54:39.659Z,4.20
2023-02-16T02:57:36.595Z,2.43
2023-02-16T03:00:36.633Z,3.03
2023-02-16T03:03:21.621Z,3.30
2023-02-16T03:05:58.789Z,3.40
2023-02-16T03:08:29.097Z,1.90
2023-02-16T03:11:37.951Z,3.30
2023-02-16T03:14:20.510Z,4.83
2023-02-16T03:17:35.355Z,2.87
2023-02-16T03:20:31.177Z,2.23
2023-02-16T03:23:20.450Z,2.63
2023-02-16T03:26:07.143Z,2.60
2023-02-16T03:28:56.771Z,2.97
2023-02-16T03:31:31.227Z,2.83
2023-02-16T03:33:59.266Z,2.93
2023-02-16T03:36:30.975Z,2.33
2023-02-16T03:38:59.405Z,2.83
2023-02-16T03:41:32.931Z,4.60
2023-02-16T03:44:00.650Z,1.63
2023-02-16T03:46:28.313Z,4.33
2023-02-16T03:48:55.844Z,3.83
2023-02-16T03:51:23.246Z,3.97
2023-02-16T03:53:50.746Z,5.20
2023-02-16T03:56:18.076Z,2.93
2023-02-16T03:58:45.518Z,2.63
2023-02-16T04:01:12.958Z,4.17
2023-02-16T04:03:40.502Z,3.03
2023-02-16T04:06:08.874Z,1.37
2023-02-16T04:08:36.156Z,3.70
2023-02-16T04:11:24.218Z,3.17
2023-02-16T04:13:51.594Z,2.90
2023-02-16T04:16:18.916Z,3.27
2023-02-16T04:18:46.301Z,3.47
2023-02-16T04:21:13.707Z,3.23
2023-02-16T04:23:41.805Z,2.17
2023-02-16T04:26:09.122Z,2.47
2023-02-16T04:28:36.758Z,3.10
2023-02-16T04:31:04.539Z,3.13
2023-02-16T04:33:32.136Z,2.30
2023-02-16T04:35:59.606Z,3.90
2023-02-16T04:38:26.900Z,5.37
2023-02-16T04:40:54.217Z,2.90
2023-02-16T04:43:21.589Z,2.63
2023-02-16T04:45:49.035Z,3.37
2023-02-16T04:48:16.550Z,2.53
2023-02-16T04:50:44.826Z,4.30
2023-02-16T04:53:12.807Z,3.17
2023-02-16T04:55:40.360Z,4.10
2023-02-16T04:58:07.863Z,3.40
2023-02-16T05:00:36.750Z,4.03
2023-02-16T05:03:04.374Z,3.43
2023-02-16T05:05:31.822Z,4.00
2023-02-16T05:07:59.375Z,3.80
2023-02-16T05:10:26.878Z,5.10
2023-02-16T05:13:14.562Z,2.53
2023-02-16T05:15:47.136Z,4.63
2023-02-16T05:18:14.588Z,4.13
2023-02-16T05:21:01.086Z,3.00
2023-02-16T05:23:28.665Z,3.97
2023-02-16T05:25:56.306Z,3.83
2023-02-16T05:28:23.699Z,2.80
2023-02-16T05:30:51.318Z,3.07
2023-02-16T05:33:19.107Z,3.13
2023-02-16T05:35:49.439Z,2.10
2023-02-16T05:38:16.726Z,4.63
2023-02-16T05:40:44.035Z,3.57
2023-02-16T05:43:11.324Z,4.33
2023-02-16T05:45:39.357Z,3.90
2023-02-16T05:48:06.753Z,2.77
2023-02-16T05:50:39.477Z,3.60
2023-02-16T05:53:10.060Z,3.73
2023-02-16T05:55:40.148Z,2.67
2023-02-16T05:58:08.217Z,2.10
2023-02-16T06:00:41.862Z,4.83
2023-02-16T06:03:09.289Z,1.50
2023-02-16T06:05:38.469Z,4.90
2023-02-16T06:08:06.024Z,2.97
2023-02-16T06:10:33.552Z,3.10
2023-02-16T06:13:06.870Z,3.97
2023-02-16T06:15:34.382Z,3.17
2023-02-16T06:18:03.651Z,3.10
2023-02-16T06:20:31.498Z,2.77
2023-02-16T06:23:00.232Z,2.67
2023-02-16T06:25:31.710Z,3.50
2023-02-16T06:27:59.707Z,4.20
2023-02-16T06:30:27.452Z,3.87
2023-02-16T06:32:54.938Z,4.17
2023-02-16T06:35:22.377Z,3.17
2023-02-16T06:37:50.037Z,2.97
2023-02-16T06:40:17.700Z,2.90
2023-02-16T06:42:45.684Z,4.53
2023-02-16T06:45:16.062Z,5.10
2023-02-16T06:47:43.597Z,5.13
2023-02-16T06:50:13.739Z,3.93
2023-02-16T06:52:48.062Z,3.37
2023-02-16T06:55:18.102Z,2.87
2023-02-16T06:57:46.697Z,4.17
2023-02-16T07:01:02.744Z,4.63
2023-02-16T07:03:30.558Z,4.40
2023-02-16T07:05:58.801Z,2.87
2023-02-16T07:08:26.443Z,3.40
2023-02-16T07:10:55.438Z,4.40
2023-02-16T07:13:22.944Z,3.17
2023-02-16T07:15:50.719Z,2.27
2023-02-16T07:18:18.720Z,4.10
2023-02-16T07:20:48.924Z,4.90
2023-02-16T07:23:17.065Z,5.43
2023-02-16T07:26:01.625Z,3.13
2023-02-16T07:28:32.808Z,4.47
2023-02-16T07:31:11.145Z,4.43
2023-02-16T07:33:39.267Z,5.90
2023-02-16T07:36:08.431Z,4.93
2023-02-16T07:38:36.651Z,5.97
2023-02-16T07:41:11.825Z,3.47
2023-02-16T07:44:06.055Z,4.43
2023-02-16T07:47:05.250Z,4.10
2023-02-16T07:49:36.235Z,3.17
2023-02-16T07:52:04.136Z,5.53
2023-02-16T07:54:33.150Z,4.77
2023-02-16T07:57:00.741Z,6.17
2023-02-16T07:59:28.029Z,4.63
2023-02-16T08:01:55.973Z,2.73
2023-02-16T08:04:23.408Z,4.20
2023-02-16T08:06:51.519Z,3.87
2023-02-16T08:10:00.538Z,4.03
2023-02-16T08:12:28.406Z,5.33
2023-02-16T08:14:56.637Z,3.53
2023-02-16T08:17:24.196Z,6.43
2023-02-16T08:20:15.314Z,3.87
2023-02-16T08:22:42.887Z,3.67
2023-02-16T08:29:57.138Z,4.47
2023-02-16T08:32:28.130Z,5.63
2023-02-16T08:34:57.548Z,4.37
2023-02-16T08:37:25.164Z,5.50
2023-02-16T08:43:06.256Z,5.10
2023-02-16T08:51:29.382Z,5.37
2023-02-16T08:54:45.512Z,5.70
2023-02-16T08:57:13.723Z,4.53
2023-02-16T08:59:41.231Z,4.20
2023-02-16T09:02:32.375Z,5.13
2023-02-16T09:08:23.973Z,4.93
2023-02-16T09:10:59.051Z,5.90
2023-02-16T09:13:46.992Z,7.13
2023-02-16T09:16:21.599Z,6.00
2023-02-16T09:18:53.464Z,6.30
2023-02-16T09:21:25.696Z,4.37
2023-02-16T09:23:56.758Z,5.97
2023-02-16T09:26:27.298Z,6.10
2023-02-16T09:28:55.326Z,7.17
2023-02-16T09:31:29.003Z,6.13
2023-02-16T09:34:15.320Z,7.17
2023-02-16T09:36:43.653Z,5.10
2023-02-16T09:39:12.376Z,4.90
2023-02-16T09:42:31.034Z,5.00
2023-02-16T09:45:11.584Z,5.63
2023-02-16T09:47:45.335Z,4.80
2023-02-16T09:50:38.443Z,5.03
2023-02-16T09:53:39.831Z,5.30
2023-02-16T09:56:48.500Z,5.97
2023-02-16T09:59:49.338Z,6.77
2023-02-16T10:02:43.470Z,5.20
2023-02-16T10:06:07.488Z,5.87
2023-02-16T10:08:51.404Z,3.83
2023-02-16T10:11:38.542Z,6.13
2023-02-16T10:14:23.200Z,4.77
2023-02-16T10:17:28.702Z,5.47
2023-02-16T10:20:26.103Z,3.90
2023-02-16T10:23:35.103Z,7.20
2023-02-16T10:26:39.757Z,7.60
2023-02-16T10:29:14.647Z,5.40
2023-02-16T10:32:08.101Z,5.87
2023-02-16T10:34:57.422Z,3.50
2023-02-16T10:37:56.953Z,6.63
2023-02-16T10:40:53.179Z,4.20
2023-02-16T10:43:40.137Z,7.67
2023-02-16T10:46:11.941Z,5.00
2023-02-16T10:48:54.103Z,5.83
2023-02-16T10:51:32.712Z,6.13
2023-02-16T10:54:10.293Z,6.63
2023-02-16T10:56:59.897Z,6.57
2023-02-16T10:59:42.600Z,6.80
2023-02-16T11:02:29.095Z,7.23
2023-02-16T11:05:19.740Z,6.80
2023-02-16T11:08:05.331Z,6.97
2023-02-16T11:10:55.217Z,7.17
2023-02-16T11:13:39.230Z,5.43
2023-02-16T11:16:19.497Z,6.33
2023-02-16T11:18:58.706Z,8.03
2023-02-16T11:22:56.215Z,8.37
2023-02-16T11:25:27.288Z,8.13
2023-02-16T11:28:08.448Z,7.07
2023-02-16T11:30:43.531Z,7.07
2023-02-16T11:33:27.773Z,7.93
2023-02-16T11:35:58.642Z,7.73
2023-02-16T11:38:37.605Z,7.37
2023-02-16T11:41:07.659Z,7.73
2023-02-16T11:43:43.054Z,7.43
2023-02-16T11:46:26.447Z,6.47
2023-02-16T11:48:56.278Z,7.80
2023-02-16T11:51:35.028Z,7.83
2023-02-16T11:54:08.150Z,7.90
2023-02-16T11:56:36.709Z,7.90
2023-02-16T11:59:22.011Z,7.17
2023-02-16T12:02:17.243Z,7.13
2023-02-16T12:05:09.581Z,6.43
2023-02-16T12:08:20.156Z,7.20
2023-02-16T12:11:18.254Z,8.13
2023-02-16T12:14:07.152Z,7.10
2023-02-16T12:17:10.943Z,6.87
2023-02-16T12:20:05.513Z,8.00
2023-02-16T12:22:46.397Z,7.47
2023-02-16T12:25:42.540Z,8.87
2023-02-16T12:28:42.015Z,6.43
2023-02-16T12:31:47.789Z,7.00
2023-02-16T12:34:51.793Z,8.40
2023-02-16T12:37:48.341Z,7.97
2023-02-16T12:40:36.282Z,6.97
2023-02-16T12:43:40.620Z,6.20
2023-02-16T12:46:40.599Z,7.60
2023-02-16T12:49:46.624Z,7.33
2023-02-16T13:01:27.025Z,8.20
2023-02-16T13:04:58.968Z,7.27
2023-02-16T13:11:47.054Z,6.70
2023-02-16T13:14:46.641Z,7.20
2023-02-16T13:17:41.089Z,5.90
2023-02-16T13:20:27.563Z,8.07
2023-02-16T13:23:21.586Z,5.83
2023-02-16T13:26:41.802Z,8.03
2023-02-16T13:29:47.380Z,6.80
2023-02-16T13:33:01.309Z,6.73
2023-02-16T13:36:13.435Z,6.73
2023-02-16T13:39:34.635Z,7.60
2023-02-16T13:42:39.418Z,6.60
2023-02-16T13:45:28.616Z,6.93
2023-02-16T13:48:17.026Z,8.23
2023-02-16T13:50:57.555Z,6.70
2023-02-16T13:54:02.746Z,6.03
2023-02-16T13:59:41.075Z,6.40
2023-02-16T14:02:13.604Z,6.83
2023-02-16T14:04:53.859Z,6.80
2023-02-16T14:07:36.048Z,6.37
2023-02-16T14:10:05.393Z,6.70
2023-02-16T14:12:40.100Z,7.30
2023-02-16T14:15:22.175Z,7.40
2023-02-16T14:17:52.562Z,7.67
2023-02-16T14:20:21.957Z,5.67
2023-02-16T14:22:54.567Z,6.10
2023-02-16T14:25:24.921Z,5.97
2023-02-16T14:27:59.821Z,7.43
2023-02-16T14:30:40.736Z,6.40
2023-02-16T14:33:17.536Z,7.60
2023-02-16T14:36:05.836Z,6.23
2023-02-16T14:38:46.112Z,7.00
2023-02-16T14:41:34.397Z,7.60
2023-02-16T14:44:04.638Z,7.77
2023-02-16T14:46:46.191Z,6.77
2023-02-16T14:50:11.116Z,6.53
2023-02-16T14:53:16.193Z,7.00
2023-02-16T14:56:44.541Z,7.57
2023-02-16T14:59:39.674Z,6.63
2023-02-16T15:02:55.180Z,5.83
2023-02-16T15:05:38.788Z,6.37
2023-02-16T15:08:25.494Z,5.63
2023-02-16T15:11:14.354Z,8.47
2023-02-16T15:13:43.756Z,7.03
2023-02-16T15:16:18.633Z,8.40
2023-02-16T15:18:52.858Z,7.67
2023-02-16T15:21:28.647Z,8.73
2023-02-16T15:24:07.915Z,7.30
2023-02-16T15:26:39.087Z,7.50
2023-02-16T15:29:29.625Z,7.70
2023-02-16T15:32:03.634Z,8.27
2023-02-16T15:34:35.641Z,9.40
2023-02-16T15:37:40.224Z,7.77
2023-02-16T15:40:32.598Z,7.00
2023-02-16T15:43:32.195Z,7.27
2023-02-16T15:46:04.076Z,9.00
2023-02-16T15:48:35.529Z,8.03
2023-02-16T15:51:20.537Z,8.43
2023-02-16T15:53:59.234Z,8.37
2023-02-16T15:56:49.816Z,7.50
2023-02-16T15:59:45.062Z,8.37
2023-02-16T16:02:14.424Z,6.67
2023-02-16T16:04:47.176Z,7.83
2023-02-16T16:07:51.088Z,8.43
2023-02-16T16:10:35.894Z,8.47
2023-02-16T16:13:30.329Z,8.33
2023-02-16T16:16:04.296Z,8.33
2023-02-16T16:18:44.440Z,8.40
2023-02-16T16:21:29.298Z,6.80
2023-02-16T16:24:14.772Z,8.93
2023-02-16T16:26:58.326Z,7.33
2023-02-16T16:29:45.090Z,7.37
2023-02-16T16:32:27.385Z,8.20
2023-02-16T16:34:58.403Z,6.63
2023-02-16T16:37:34.421Z,7.70
2023-02-16T16:40:19.957Z,7.90
2023-02-16T16:43:14.413Z,6.67
2023-02-16T16:46:16.676Z,8.93
2023-02-16T16:49:05.044Z,6.20
2023-02-16T16:51:42.839Z,7.70
2023-02-16T16:57:42.869Z,8.73
2023-02-16T17:00:11.593Z,7.97
2023-02-16T17:02:39.128Z,8.37
2023-02-16T17:08:36.413Z,7.73
2023-02-16T17:11:05.008Z,5.73
2023-02-16T17:13:32.553Z,5.90
2023-02-16T17:16:09.077Z,7.03
2023-02-16T17:18:40.288Z,6.80
2023-02-16T17:21:07.832Z,9.13
2023-02-16T17:23:35.498Z,5.50
2023-02-16T17:26:04.454Z,8.70
2023-02-16T17:28:41.006Z,8.13
2023-02-16T17:31:10.372Z,8.43
2023-02-16T17:33:39.063Z,7.63
2023-02-16T17:36:08.174Z,7.83
2023-02-16T17:38:35.547Z,7.37
2023-02-16T17:41:03.246Z,7.07
2023-02-16T17:43:30.913Z,7.77
2023-02-16T17:46:08.895Z,18.33
2023-02-16T17:48:37.142Z,9.53
2023-02-16T17:52:20.024Z,9.93
2023-02-16T17:54:57.431Z,6.87
2023-02-16T17:58:16.803Z,8.43
2023-02-16T18:00:47.506Z,7.47
2023-02-16T18:07:17.400Z,6.50
2023-02-16T18:09:44.869Z,6.17
2023-02-16T18:12:12.380Z,5.83
2023-02-16T18:14:48.956Z,6.17
2023-02-16T18:17:16.747Z,8.60
2023-02-16T18:19:48.508Z,7.03
2023-02-16T18:22:26.585Z,6.23
2023-02-16T18:25:01.260Z,6.87
2023-02-16T18:27:43.409Z,6.07
2023-02-16T18:30:58.412Z,8.13
2023-02-16T18:33:35.165Z,8.00
2023-02-16T18:36:09.197Z,5.67
2023-02-16T18:38:38.186Z,6.00
2023-02-16T18:41:09.343Z,5.60
2023-02-16T18:44:36.187Z,7.07
2023-02-16T18:47:35.490Z,5.93
2023-02-16T18:50:06.740Z,4.30
2023-02-16T18:53:20.391Z,8.30
2023-02-16T18:55:51.019Z,6.63
2023-02-16T18:58:38.182Z,6.17
2023-02-16T19:01:36.477Z,6.70
2023-02-16T19:04:16.638Z,6.30
2023-02-16T19:07:10.473Z,6.43
2023-02-16T19:09:43.303Z,9.03
2023-02-16T19:12:12.949Z,6.77
2023-02-16T19:18:30.087Z,5.57
2023-02-16T19:21:11.798Z,5.77
2023-02-16T19:23:52.694Z,7.37
2023-02-16T19:26:23.399Z,7.13
2023-02-16T19:28:53.833Z,4.97
2023-02-16T19:31:32.956Z,6.27
2023-02-16T19:34:07.531Z,6.83
2023-02-16T19:37:20.807Z,5.43
2023-02-16T19:40:15.468Z,7.20
2023-02-16T19:58:09.818Z,6.37
2023-02-16T20:00:44.047Z,6.03
2023-02-16T20:03:20.157Z,5.50
2023-02-16T20:05:58.857Z,7.30
2023-02-16T20:09:15.773Z,6.00
2023-02-16T20:12:43.836Z,5.10
2023-02-16T20:15:17.894Z,6.10
2023-02-16T20:17:45.494Z,5.83
2023-02-16T20:24:33.971Z,6.40
2023-02-16T20:27:05.480Z,5.43
2023-02-16T20:29:34.812Z,6.73
2023-02-16T20:32:05.388Z,5.57
2023-02-16T20:34:33.832Z,6.23
2023-02-16T20:37:05.529Z,6.67
2023-02-16T20:39:33.133Z,7.93
2023-02-16T20:42:06.425Z,8.60
2023-02-16T20:44:33.985Z,7.57
2023-02-16T20:47:02.132Z,6.07
2023-02-16T20:49:29.681Z,5.83
2023-02-16T20:52:26.270Z,6.30
2023-02-16T20:55:23.592Z,4.97
2023-02-16T20:57:58.897Z,7.43
2023-02-16T21:00:27.059Z,6.80
2023-02-16T21:02:54.716Z,7.07
2023-02-16T21:05:30.496Z,8.37
2023-02-16T21:08:05.550Z,6.93
2023-02-16T21:16:49.593Z,5.27
2023-02-16T21:19:44.339Z,8.23
2023-02-16T21:44:25.339Z,7.27
2023-02-16T21:50:16.644Z,8.50
2023-02-16T21:52:45.843Z,6.13
2023-02-16T21:55:32.956Z,5.00
2023-02-16T21:58:00.366Z,7.00
2023-02-16T22:00:28.666Z,9.03
2023-02-16T22:02:58.696Z,8.03
2023-02-16T22:10:35.071Z,7.53
2023-02-16T22:13:12.400Z,7.00
2023-02-16T22:16:05.940Z,6.73
2023-02-16T22:19:14.968Z,8.40
2023-02-16T22:22:56.544Z,5.57
2023-02-16T22:25:39.361Z,5.80
2023-02-16T22:29:41.461Z,6.07
2023-02-16T22:31:58.499Z,8.17
2023-02-16T22:34:46.376Z,7.60
2023-02-16T22:37:14.865Z,3.90
2023-02-16T22:39:42.635Z,4.67
2023-02-16T22:42:10.392Z,9.63
2023-02-16T22:44:39.177Z,8.43
2023-02-16T22:47:06.762Z,7.70
2023-02-16T22:54:52.322Z,6.40
2023-02-16T23:02:20.557Z,4.63
2023-02-16T23:04:48.984Z,7.23
2023-02-16T23:07:28.861Z,6.50
2023-02-16T23:09:56.632Z,7.90
2023-02-16T23:12:24.695Z,6.60
2023-02-16T23:14:52.306Z,8.77
2023-02-16T23:17:20.438Z,8.70
2023-02-16T23:19:51.585Z,9.50
2023-02-16T23:22:19.448Z,10.30
2023-02-16T23:25:36.890Z,8.33
2023-02-16T23:46:00.059Z,6.20
